createdAt,value
2017-08-24T00:00:38.635Z,4.40
2017-08-24T00:03:07.687Z,4.30
2017-08-24T00:05:36.748Z,4.20
2017-08-24T00:08:05.817Z,4.47
2017-08-24T00:10:34.874Z,5.00
2017-08-24T00:13:03.952Z,5.30
2017-08-24T00:15:33.000Z,5.27
2017-08-24T00:18:02.095Z,5.03
2017-08-24T00:20:31.512Z,6.30
2017-08-24T00:23:00.883Z,5.87
2017-08-24T00:25:29.911Z,5.10
2017-08-24T00:27:58.999Z,5.73
2017-08-24T00:30:43.295Z,7.33
2017-08-24T00:33:13.459Z,6.73
2017-08-24T00:35:42.519Z,6.40
2017-08-24T00:38:11.601Z,8.87
2017-08-24T00:40:40.678Z,14.33
2017-08-24T00:43:09.786Z,16.30
2017-08-24T00:45:38.864Z,17.00
2017-08-24T00:48:08.172Z,18.17
2017-08-24T00:50:37.232Z,18.70
2017-08-24T00:53:06.364Z,19.57
2017-08-24T00:55:35.447Z,19.10
2017-08-24T00:58:04.503Z,19.50
2017-08-24T01:00:33.575Z,18.87
2017-08-24T01:03:02.856Z,19.10
2017-08-24T01:05:31.932Z,22.13
2017-08-24T01:08:01.004Z,26.57
2017-08-24T01:10:30.312Z,27.23
2017-08-24T01:12:59.382Z,28.00
2017-08-24T01:15:28.461Z,30.90
2017-08-24T01:17:57.519Z,28.53
2017-08-24T01:20:26.622Z,30.80
2017-08-24T01:22:55.669Z,31.10
2017-08-24T01:25:24.736Z,29.80
2017-08-24T01:27:53.815Z,30.97
2017-08-24T01:30:23.208Z,30.50
2017-08-24T01:32:52.279Z,27.67
2017-08-24T01:35:21.346Z,29.03
2017-08-24T01:37:50.413Z,27.40
2017-08-24T01:40:19.568Z,28.60
2017-08-24T01:42:48.640Z,28.63
2017-08-24T01:45:17.717Z,27.57
2017-08-24T01:47:46.865Z,26.07
2017-08-24T01:50:15.937Z,23.53
2017-08-24T01:52:45.016Z,26.93
2017-08-24T01:55:14.143Z,25.90
2017-08-24T01:57:43.222Z,24.20
2017-08-24T02:00:12.265Z,22.77
2017-08-24T02:02:41.356Z,22.13
2017-08-24T02:05:10.746Z,22.60
2017-08-24T02:07:39.796Z,22.40
2017-08-24T02:10:09.537Z,22.90
2017-08-24T02:12:38.595Z,21.63
2017-08-24T02:15:07.795Z,21.20
2017-08-24T02:17:36.899Z,20.87
2017-08-24T02:20:05.960Z,20.87
2017-08-24T02:22:35.228Z,20.40
2017-08-24T02:25:04.296Z,21.37
2017-08-24T02:27:33.378Z,21.27
2017-08-24T02:30:02.445Z,20.60
2017-08-24T02:32:32.392Z,21.70
2017-08-24T02:35:01.471Z,20.43
2017-08-24T02:37:30.531Z,21.13
2017-08-24T02:39:59.574Z,21.00
2017-08-24T02:42:28.691Z,22.30
2017-08-24T02:44:58.176Z,23.73
2017-08-24T02:47:27.244Z,26.90
2017-08-24T02:49:56.324Z,26.07
2017-08-24T02:52:25.531Z,26.70
2017-08-24T02:54:54.623Z,26.73
2017-08-24T02:57:23.685Z,26.17
2017-08-24T02:59:52.757Z,28.17
2017-08-24T03:02:22.624Z,28.67
2017-08-24T03:04:51.673Z,27.30
2017-08-24T03:07:20.727Z,26.50
2017-08-24T03:09:49.793Z,30.97
2017-08-24T03:12:18.846Z,31.43
2017-08-24T03:14:47.913Z,32.23
2017-08-24T03:17:16.983Z,33.87
2017-08-24T03:19:46.073Z,31.67
2017-08-24T03:22:15.932Z,34.67
2017-08-24T03:24:45.821Z,34.37
2017-08-24T03:27:14.927Z,34.60
2017-08-24T03:29:43.975Z,36.50
2017-08-24T03:32:13.053Z,37.40
2017-08-24T03:34:42.161Z,36.00
2017-08-24T03:37:11.382Z,35.03
2017-08-24T03:39:40.456Z,36.40
2017-08-24T03:42:09.532Z,35.23
2017-08-24T03:44:38.613Z,33.93
2017-08-24T03:47:07.679Z,29.90
2017-08-24T03:49:36.791Z,31.20
2017-08-24T03:52:05.827Z,29.10
2017-08-24T03:54:34.897Z,26.73
2017-08-24T03:57:03.975Z,26.47
2017-08-24T03:59:33.072Z,26.90
2017-08-24T04:02:02.518Z,28.33
2017-08-24T04:04:31.554Z,26.87
2017-08-24T04:07:00.639Z,26.30
2017-08-24T04:09:29.700Z,28.10
2017-08-24T04:11:58.791Z,28.13
2017-08-24T04:14:27.849Z,24.53
2017-08-24T04:16:56.923Z,25.67
2017-08-24T04:19:26.018Z,24.93
2017-08-24T04:21:55.063Z,23.50
2017-08-24T04:24:24.887Z,24.10
2017-08-24T04:26:54.722Z,23.77
2017-08-24T04:29:23.784Z,23.10
2017-08-24T04:31:52.871Z,23.80
2017-08-24T04:34:21.933Z,23.43
2017-08-24T04:36:54.104Z,22.90
2017-08-24T04:39:23.175Z,21.43
2017-08-24T04:41:52.264Z,20.10
2017-08-24T04:44:21.319Z,19.60
2017-08-24T04:46:51.185Z,18.83
2017-08-24T04:49:20.246Z,19.53
2017-08-24T04:51:50.060Z,17.30
2017-08-24T04:54:19.145Z,16.37
2017-08-24T04:56:48.210Z,16.40
2017-08-24T04:59:17.302Z,16.30
2017-08-24T05:01:46.369Z,16.70
2017-08-24T05:04:15.580Z,16.13
2017-08-24T05:06:44.674Z,18.40
2017-08-24T05:09:13.735Z,19.37
2017-08-24T05:11:42.820Z,19.50
2017-08-24T05:14:12.637Z,18.37
2017-08-24T05:16:42.483Z,17.87
2017-08-24T05:19:11.535Z,17.90
2017-08-24T05:21:42.904Z,18.47
2017-08-24T05:24:13.004Z,18.47
2017-08-24T05:26:42.056Z,20.23
2017-08-24T05:29:11.292Z,19.53
2017-08-24T05:31:41.282Z,20.60
2017-08-24T05:34:10.685Z,18.67
2017-08-24T05:36:39.765Z,20.70
2017-08-24T05:39:08.879Z,19.53
2017-08-24T05:41:38.153Z,21.70
2017-08-24T05:44:07.196Z,21.50
2017-08-24T05:46:37.035Z,21.03
2017-08-24T05:49:06.207Z,20.37
2017-08-24T05:51:35.307Z,23.30
2017-08-24T05:54:04.441Z,24.57
2017-08-24T05:56:34.240Z,23.17
2017-08-24T05:59:03.356Z,26.00
2017-08-24T06:01:32.402Z,24.80
2017-08-24T06:04:01.484Z,24.60
2017-08-24T06:06:30.531Z,24.50
2017-08-24T06:08:59.587Z,23.47
2017-08-24T06:11:29.435Z,22.87
2017-08-24T06:13:58.494Z,22.80
2017-08-24T06:16:27.573Z,22.13
2017-08-24T06:18:56.646Z,22.90
2017-08-24T06:21:25.713Z,23.73
2017-08-24T06:23:55.052Z,23.40
2017-08-24T06:26:24.176Z,24.10
2017-08-24T06:28:53.272Z,23.50
2017-08-24T06:31:22.336Z,22.90
2017-08-24T06:33:51.629Z,23.10
2017-08-24T06:36:20.706Z,24.53
2017-08-24T06:38:49.764Z,22.93
2017-08-24T06:41:18.836Z,24.73
2017-08-24T06:43:48.013Z,23.97
2017-08-24T06:46:17.092Z,26.50
2017-08-24T06:48:46.180Z,25.40
2017-08-24T06:51:15.243Z,25.90
2017-08-24T06:53:44.329Z,24.60
2017-08-24T06:56:13.381Z,23.33
2017-08-24T06:58:42.466Z,23.90
2017-08-24T07:01:11.556Z,25.57
2017-08-24T07:03:40.623Z,26.50
2017-08-24T07:06:09.694Z,25.33
2017-08-24T07:08:38.797Z,27.17
2017-08-24T07:11:07.923Z,28.20
2017-08-24T07:13:36.993Z,26.57
2017-08-24T07:16:06.820Z,25.67
2017-08-24T07:18:35.883Z,25.63
2017-08-24T07:21:04.972Z,25.47
2017-08-24T07:23:34.047Z,24.93
2017-08-24T07:26:03.137Z,24.67
2017-08-24T07:28:32.183Z,23.03
2017-08-24T07:31:02.983Z,23.40
2017-08-24T07:33:32.830Z,25.00
2017-08-24T07:36:01.940Z,25.73
2017-08-24T07:38:31.016Z,25.00
2017-08-24T07:41:00.102Z,25.47
2017-08-24T07:43:29.158Z,24.60
2017-08-24T07:45:58.229Z,24.80
2017-08-24T07:48:27.309Z,23.80
2017-08-24T07:50:56.455Z,25.20
2017-08-24T07:53:25.552Z,23.83
2017-08-24T07:55:55.420Z,24.43
2017-08-24T07:58:24.470Z,23.90
2017-08-24T08:00:53.575Z,24.33
2017-08-24T08:03:22.623Z,24.23
2017-08-24T08:05:51.693Z,23.47
2017-08-24T08:08:20.856Z,25.30
2017-08-24T08:10:49.956Z,24.47
2017-08-24T08:13:19.037Z,23.57
2017-08-24T08:15:48.152Z,24.20
2017-08-24T08:18:17.221Z,22.67
2017-08-24T08:20:46.291Z,24.90
2017-08-24T08:23:15.371Z,25.30
2017-08-24T08:25:45.291Z,22.73
2017-08-24T08:28:14.442Z,22.80
2017-08-24T08:30:43.658Z,21.73
2017-08-24T08:33:12.720Z,22.37
2017-08-24T08:35:41.794Z,22.30
2017-08-24T08:38:11.612Z,21.93
2017-08-24T08:40:40.672Z,20.47
2017-08-24T08:43:09.899Z,19.33
2017-08-24T08:45:39.697Z,20.57
2017-08-24T08:48:09.039Z,22.00
2017-08-24T08:50:38.090Z,19.07
2017-08-24T08:53:07.496Z,20.63
2017-08-24T08:55:36.589Z,19.33
2017-08-24T08:58:05.677Z,20.03
2017-08-24T09:00:34.768Z,20.40
2017-08-24T09:03:03.864Z,19.97
2017-08-24T09:05:33.711Z,19.07
2017-08-24T09:08:02.828Z,21.80
2017-08-24T09:10:31.888Z,20.73
2017-08-24T09:13:00.967Z,18.37
2017-08-24T09:15:30.033Z,18.33
2017-08-24T09:17:59.109Z,18.70
2017-08-24T09:20:28.185Z,17.73
2017-08-24T09:22:57.269Z,16.60
2017-08-24T09:25:26.332Z,17.23
2017-08-24T09:27:56.161Z,16.20
2017-08-24T09:30:26.000Z,16.57
2017-08-24T09:32:55.084Z,16.57
2017-08-24T09:35:24.156Z,17.87
2017-08-24T09:37:53.221Z,16.07
2017-08-24T09:40:22.423Z,18.10
2017-08-24T09:42:51.500Z,17.60
2017-08-24T09:45:20.576Z,17.20
2017-08-24T09:47:49.648Z,16.70
2017-08-24T09:50:18.699Z,15.87
2017-08-24T09:52:48.131Z,17.77
2017-08-24T09:55:17.156Z,16.90
2017-08-24T09:57:46.247Z,15.70
2017-08-24T10:00:15.304Z,15.80
2017-08-24T10:02:45.254Z,16.27
2017-08-24T10:05:14.734Z,16.47
2017-08-24T10:07:43.853Z,17.03
2017-08-24T10:10:12.940Z,18.00
2017-08-24T10:12:42.032Z,17.87
2017-08-24T10:15:11.260Z,17.20
2017-08-24T10:17:40.321Z,16.90
2017-08-24T10:20:09.433Z,17.33
2017-08-24T10:22:38.493Z,19.20
2017-08-24T10:25:07.583Z,19.97
2017-08-24T10:27:36.649Z,22.10
2017-08-24T10:30:05.743Z,22.53
2017-08-24T10:32:34.786Z,20.33
2017-08-24T10:35:03.850Z,21.77
2017-08-24T10:37:32.918Z,18.93
2017-08-24T10:40:02.004Z,19.30
2017-08-24T10:42:31.669Z,19.97
2017-08-24T10:45:00.726Z,19.13
2017-08-24T10:47:29.874Z,18.97
2017-08-24T10:49:58.926Z,18.80
2017-08-24T10:52:27.996Z,19.70
2017-08-24T10:54:57.059Z,18.63
2017-08-24T10:57:26.160Z,17.00
2017-08-24T10:59:55.207Z,18.43
2017-08-24T11:02:24.278Z,18.63
2017-08-24T11:04:53.364Z,21.17
2017-08-24T11:07:22.430Z,20.30
2017-08-24T11:09:51.496Z,20.97
2017-08-24T11:12:20.832Z,20.20
2017-08-24T11:14:49.903Z,19.63
2017-08-24T11:17:18.951Z,19.17
2017-08-24T11:19:48.029Z,19.43
2017-08-24T11:22:17.116Z,19.80
2017-08-24T11:24:46.209Z,20.87
2017-08-24T11:27:15.432Z,19.60
2017-08-24T11:29:44.511Z,17.90
2017-08-24T11:32:13.611Z,19.80
2017-08-24T11:34:42.688Z,21.93
2017-08-24T11:37:11.715Z,21.27
2017-08-24T11:39:40.815Z,18.87
2017-08-24T11:42:09.865Z,17.90
2017-08-24T11:44:38.936Z,18.43
2017-08-24T11:47:07.992Z,16.90
2017-08-24T11:49:37.056Z,16.50
2017-08-24T11:52:06.152Z,16.10
2017-08-24T11:54:35.221Z,16.77
2017-08-24T11:57:04.714Z,17.57
2017-08-24T11:59:33.923Z,18.57
2017-08-24T12:02:03.032Z,16.93
2017-08-24T12:04:32.085Z,17.73
2017-08-24T12:07:01.169Z,19.37
2017-08-24T12:09:30.247Z,19.83
2017-08-24T12:11:59.300Z,18.40
2017-08-24T12:14:28.364Z,18.07
2017-08-24T12:16:57.464Z,16.20
2017-08-24T12:19:26.505Z,16.97
2017-08-24T12:21:55.591Z,16.30
2017-08-24T12:24:24.661Z,17.80
2017-08-24T12:26:53.735Z,19.60
2017-08-24T12:29:22.825Z,17.90
2017-08-24T12:31:51.885Z,19.07
2017-08-24T12:34:20.976Z,18.30
2017-08-24T12:36:50.489Z,19.30
2017-08-24T12:39:19.545Z,18.37
2017-08-24T12:41:48.597Z,20.13
2017-08-24T12:44:17.667Z,18.67
2017-08-24T12:46:46.873Z,17.43
2017-08-24T12:49:15.952Z,19.30
2017-08-24T12:51:45.041Z,16.13
2017-08-24T12:54:14.119Z,16.43
2017-08-24T12:56:44.178Z,16.30
2017-08-24T12:59:13.238Z,16.07
2017-08-24T13:01:42.979Z,15.80
2017-08-24T13:04:12.049Z,16.47
2017-08-24T13:06:41.117Z,16.90
2017-08-24T13:09:10.200Z,15.07
2017-08-24T13:11:41.044Z,14.87
2017-08-24T13:14:10.433Z,14.30
2017-08-24T13:16:40.268Z,15.87
2017-08-24T13:19:09.350Z,13.83
2017-08-24T13:21:38.424Z,14.90
2017-08-24T13:24:07.787Z,14.93
2017-08-24T13:26:37.980Z,16.60
2017-08-24T13:29:07.308Z,16.33
2017-08-24T13:31:36.355Z,14.90
2017-08-24T13:34:05.542Z,13.37
2017-08-24T13:36:35.359Z,15.43
2017-08-24T13:39:04.537Z,13.83
2017-08-24T13:41:33.620Z,11.87
2017-08-24T13:44:02.682Z,12.53
2017-08-24T13:46:31.774Z,10.40
2017-08-24T13:49:00.858Z,11.30
2017-08-24T13:51:29.924Z,10.70
2017-08-24T13:53:59.335Z,10.43
2017-08-24T13:56:28.387Z,10.50
2017-08-24T13:58:57.431Z,10.20
2017-08-24T14:01:26.615Z,11.30
2017-08-24T14:03:55.695Z,11.20
2017-08-24T14:06:24.739Z,11.90
2017-08-24T14:08:53.832Z,10.87
2017-08-24T14:11:22.901Z,11.57
2017-08-24T14:13:52.007Z,10.40
2017-08-24T14:16:21.086Z,10.23
2017-08-24T14:18:50.161Z,9.63
2017-08-24T14:21:19.230Z,11.10
2017-08-24T14:23:48.339Z,10.50
2017-08-24T14:26:17.423Z,10.13
2017-08-24T14:28:46.496Z,9.90
2017-08-24T14:31:15.625Z,10.40
2017-08-24T14:33:44.684Z,10.30
2017-08-24T14:36:13.780Z,10.70
2017-08-24T14:38:42.840Z,9.37
2017-08-24T14:41:11.904Z,8.50
2017-08-24T14:43:40.985Z,8.70
2017-08-24T14:46:10.060Z,6.43
2017-08-24T14:48:39.091Z,6.83
2017-08-24T14:51:08.227Z,6.80
2017-08-24T14:53:37.305Z,6.70
2017-08-24T14:56:06.445Z,7.47
2017-08-24T14:58:35.513Z,7.10
2017-08-24T15:01:04.561Z,7.67
2017-08-24T15:03:33.620Z,6.30
2017-08-24T15:06:02.691Z,6.67
2017-08-24T15:08:31.743Z,5.73
2017-08-24T15:11:00.789Z,6.27
2017-08-24T15:13:29.853Z,6.30
2017-08-24T15:15:58.919Z,6.10
2017-08-24T15:18:27.973Z,6.07
2017-08-24T15:20:57.045Z,5.97
2017-08-24T15:23:26.088Z,5.63
2017-08-24T15:25:55.156Z,5.50
2017-08-24T15:28:24.992Z,5.37
2017-08-24T15:30:54.250Z,5.00
2017-08-24T15:33:23.349Z,5.63
2017-08-24T15:35:52.395Z,5.63
2017-08-24T15:38:21.447Z,5.03
2017-08-24T15:40:50.522Z,4.73
2017-08-24T15:43:19.571Z,5.13
2017-08-24T15:45:48.700Z,5.57
2017-08-24T15:48:17.744Z,4.33
2017-08-24T15:50:46.905Z,4.50
2017-08-24T15:53:15.963Z,4.63
2017-08-24T15:55:45.017Z,4.67
2017-08-24T15:58:14.100Z,4.67
2017-08-24T16:00:43.168Z,4.83
2017-08-24T16:03:12.653Z,4.70
2017-08-24T16:05:41.725Z,4.90
2017-08-24T16:08:10.797Z,5.20
2017-08-24T16:10:39.868Z,4.40
2017-08-24T16:13:08.944Z,4.83
2017-08-24T16:15:38.028Z,5.10
2017-08-24T16:18:07.099Z,5.10
2017-08-24T16:20:36.177Z,19.70
2017-08-24T16:23:05.257Z,7.97
2017-08-24T16:25:34.412Z,7.27
2017-08-24T16:28:03.500Z,6.40
2017-08-24T16:30:32.544Z,6.00
2017-08-24T16:33:01.611Z,7.73
2017-08-24T16:35:30.663Z,5.67
2017-08-24T16:37:59.792Z,6.40
2017-08-24T16:40:28.851Z,5.60
2017-08-24T16:42:57.950Z,5.40
2017-08-24T16:45:26.971Z,6.37
2017-08-24T16:47:56.094Z,14.40
2017-08-24T16:50:25.164Z,19.67
2017-08-24T16:52:54.246Z,9.67
2017-08-24T16:55:23.284Z,5.97
2017-08-24T16:57:52.372Z,6.07
2017-08-24T17:00:21.432Z,8.20
2017-08-24T17:02:50.488Z,9.00
2017-08-24T17:05:20.984Z,10.90
2017-08-24T17:07:50.033Z,5.97
2017-08-24T17:10:19.116Z,6.33
2017-08-24T17:12:48.184Z,5.33
2017-08-24T17:15:17.458Z,4.73
2017-08-24T17:17:46.533Z,5.63
2017-08-24T17:20:15.597Z,4.83
2017-08-24T17:22:45.344Z,5.13
2017-08-24T17:25:14.437Z,3.93
2017-08-24T17:27:43.509Z,4.80
2017-08-24T17:30:12.624Z,4.73
2017-08-24T17:32:41.634Z,5.97
2017-08-24T17:35:10.877Z,5.60
2017-08-24T17:37:39.916Z,5.93
2017-08-24T17:40:09.041Z,5.30
2017-08-24T17:42:38.097Z,5.60
2017-08-24T17:45:08.332Z,5.77
2017-08-24T17:47:37.424Z,5.30
2017-08-24T17:50:06.511Z,5.23
2017-08-24T17:52:35.583Z,5.40
2017-08-24T17:55:04.658Z,5.10
2017-08-24T17:57:33.715Z,5.57
2017-08-24T18:00:02.821Z,6.23
2017-08-24T18:02:32.532Z,5.33
2017-08-24T18:05:01.613Z,4.93
2017-08-24T18:07:30.692Z,6.00
2017-08-24T18:09:59.768Z,6.90
2017-08-24T18:12:28.841Z,5.70
2017-08-24T18:14:57.911Z,4.57
2017-08-24T18:17:26.984Z,5.20
2017-08-24T18:19:56.033Z,5.00
2017-08-24T18:22:25.099Z,4.73
2017-08-24T18:24:54.180Z,5.07
2017-08-24T18:27:23.219Z,5.23
2017-08-24T18:29:52.296Z,5.13
2017-08-24T18:32:21.375Z,5.20
2017-08-24T18:34:50.435Z,4.70
2017-08-24T18:37:19.583Z,4.57
2017-08-24T18:39:48.675Z,4.90
2017-08-24T18:42:17.720Z,4.80
2017-08-24T18:44:46.789Z,4.93
2017-08-24T18:47:15.983Z,4.73
2017-08-24T18:49:45.041Z,4.60
2017-08-24T18:52:14.128Z,4.93
2017-08-24T18:54:43.177Z,4.87
2017-08-24T18:57:12.280Z,4.70
2017-08-24T18:59:41.360Z,4.83
2017-08-24T19:02:10.481Z,5.70
2017-08-24T19:04:39.554Z,4.30
2017-08-24T19:07:08.641Z,5.50
2017-08-24T19:09:37.697Z,5.87
2017-08-24T19:12:06.748Z,5.10
2017-08-24T19:14:35.832Z,4.40
2017-08-24T19:17:04.868Z,4.90
2017-08-24T19:19:33.936Z,4.50
2017-08-24T19:22:03.023Z,5.00
2017-08-24T19:24:32.104Z,5.30
2017-08-24T19:27:01.166Z,4.80
2017-08-24T19:29:30.295Z,5.50
2017-08-24T19:31:59.401Z,5.33
2017-08-24T19:34:28.439Z,4.57
2017-08-24T19:36:57.512Z,4.93
2017-08-24T19:39:26.578Z,4.80
2017-08-24T19:41:55.639Z,5.20
2017-08-24T19:44:24.711Z,5.87
2017-08-24T19:46:53.783Z,5.60
2017-08-24T19:49:22.840Z,5.80
2017-08-24T19:51:51.912Z,5.40
2017-08-24T19:54:20.982Z,5.90
2017-08-24T19:56:50.033Z,5.00
2017-08-24T19:59:19.098Z,5.00
2017-08-24T20:01:48.137Z,5.30
2017-08-24T20:04:17.225Z,4.60
2017-08-24T20:06:46.287Z,4.60
2017-08-24T20:09:15.353Z,4.87
2017-08-24T20:11:44.420Z,5.47
2017-08-24T20:14:13.475Z,5.23
2017-08-24T20:16:42.541Z,4.93
2017-08-24T20:19:11.916Z,6.00
2017-08-24T20:21:40.962Z,6.30
2017-08-24T20:24:10.072Z,5.80
2017-08-24T20:26:39.142Z,5.43
2017-08-24T20:29:08.228Z,4.60
2017-08-24T20:31:37.284Z,5.10
2017-08-24T20:34:06.350Z,4.70
2017-08-24T20:36:35.630Z,5.30
2017-08-24T20:39:04.731Z,5.07
2017-08-24T20:41:33.824Z,5.90
2017-08-24T20:44:02.907Z,5.10
2017-08-24T20:46:32.172Z,5.50
2017-08-24T20:49:01.265Z,7.87
2017-08-24T20:51:31.871Z,6.93
2017-08-24T20:54:00.932Z,5.83
2017-08-24T20:56:29.992Z,5.87
2017-08-24T20:58:59.067Z,7.07
2017-08-24T21:01:28.140Z,8.23
2017-08-24T21:03:57.395Z,6.70
2017-08-24T21:06:26.468Z,7.37
2017-08-24T21:08:55.528Z,6.97
2017-08-24T21:11:24.619Z,7.47
2017-08-24T21:13:53.670Z,6.87
2017-08-24T21:16:22.754Z,7.60
2017-08-24T21:18:51.803Z,8.07
2017-08-24T21:21:20.856Z,8.03
2017-08-24T21:23:49.933Z,7.20
2017-08-24T21:26:19.003Z,7.67
2017-08-24T21:28:48.102Z,8.20
2017-08-24T21:31:17.155Z,7.20
2017-08-24T21:33:46.235Z,7.70
2017-08-24T21:36:15.315Z,7.50
2017-08-24T21:38:44.396Z,7.50
2017-08-24T21:41:13.486Z,8.10
2017-08-24T21:43:42.557Z,8.70
2017-08-24T21:46:12.196Z,8.40
2017-08-24T21:48:41.240Z,8.30
2017-08-24T21:51:10.311Z,7.20
2017-08-24T21:53:39.370Z,8.30
2017-08-24T21:56:08.484Z,6.83
2017-08-24T21:58:37.524Z,7.13
2017-08-24T22:01:06.624Z,6.90
2017-08-24T22:03:35.672Z,6.77
2017-08-24T22:06:04.754Z,7.60
2017-08-24T22:08:33.840Z,6.90
2017-08-24T22:11:03.083Z,6.27
2017-08-24T22:13:32.137Z,5.80
2017-08-24T22:16:01.208Z,5.77
2017-08-24T22:18:30.265Z,6.10
2017-08-24T22:20:59.714Z,5.23
2017-08-24T22:23:28.748Z,5.63
2017-08-24T22:25:57.928Z,5.87
2017-08-24T22:28:27.036Z,5.10
2017-08-24T22:30:56.136Z,5.67
2017-08-24T22:33:25.160Z,4.77
2017-08-24T22:35:54.221Z,5.30
2017-08-24T22:38:23.292Z,5.13
2017-08-24T22:40:52.709Z,4.67
2017-08-24T22:43:21.744Z,4.77
2017-08-24T22:45:50.840Z,4.50
2017-08-24T22:48:19.891Z,5.83
2017-08-24T22:50:49.106Z,5.07
2017-08-24T22:53:23.772Z,4.50
2017-08-24T22:55:58.313Z,5.50
2017-08-24T22:58:32.974Z,5.20
2017-08-24T23:01:07.560Z,5.73
2017-08-24T23:03:42.225Z,6.13
2017-08-24T23:06:11.283Z,7.13
2017-08-24T23:08:40.626Z,7.60
2017-08-24T23:11:10.656Z,8.43
2017-08-24T23:13:39.705Z,7.80
2017-08-24T23:16:08.754Z,7.70
2017-08-24T23:18:37.828Z,8.73
2017-08-24T23:21:06.912Z,7.60
2017-08-24T23:23:35.972Z,8.07
2017-08-24T23:26:05.106Z,8.13
2017-08-24T23:28:34.137Z,7.43
2017-08-24T23:31:03.234Z,7.57
2017-08-24T23:33:32.306Z,7.07
2017-08-24T23:36:01.369Z,7.63
2017-08-24T23:38:30.480Z,7.63
2017-08-24T23:40:59.508Z,7.50
2017-08-24T23:43:28.594Z,8.00
2017-08-24T23:45:57.639Z,8.17
2017-08-24T23:48:26.726Z,8.53
2017-08-24T23:50:55.775Z,7.80
2017-08-24T23:53:24.849Z,8.17
2017-08-24T23:55:53.911Z,7.90
2017-08-24T23:58:22.976Z,8.00
